Concepcion, Bolivia
Current Conditions -  °F | °C
As of 10:00 AM on Saturday 22 Nov 2014 (Local Time) from SLSI Reporting Station
Overcast Overcast  
Wind Chill: 79°   Ceiling: 1500
Heat Index: 82°   Visibility: 6mi
Dew Point: 75°   Wind: 0mph
Humidity: 89%   Direction: NA
Pressure: 29.91"   Gusts: NA
Location:  16.25°S, 62.1°W
Report Text: SLSI 221400Z 00000KT 9999 BKN015 OVC070 26/24 Q1013
Loading
Personal Weather Stations






























Interactive Weather Map New forecast layout! Learn more

10-Day Weather Forecast

Advertisements
Track Severe Weather on mobile